Temp: 12.7°C   Baro: 995.1mb
  Wind: 6.9mph   Dir: SW (229°)
  Rain: 1.8mm (0.0mm/hr)
  Solar: 197W/m2  Hum: 84%
 
Bath Spa Weather Station Historical Data
Daily Summary for April 12, 2021 Units:  Metric    English   Both
Daily Weekly Monthly Yearly Custom
  High: Low: Average:
Temperature: 10.5 °C -0.8 °C 5.2 °C
Dew Point: 3.9 °C -1.9 °C 1.7 °C
Humidity: 91% 53% 77%
Wind Speed: 12.9km/h 0km/h 3.5km/h
Wind Gust: 24.1km/h - -
Wind- - South
Pressure: 1031.7 hPa 1026 hPa -
Precipitation: 0.51 mm    
Historical Graphs
 
 
Tabular Data for April 12, 2021
Time Temperature Dew Point Pressure Wind Wind Speed Wind Gust Humidity Rainfall Rate (Hourly) solar
00:04 0.5 °C -0.9 °C 1026.6 hPa WNW 2.6 km/h 4.8 km/h 87% 0 mm 0 W/m2
00:09 0.6 °C -0.8 °C 1026.3 hPa WNW 0.8 km/h 3.2 km/h 87% 0 mm 0 W/m2
00:14 0.6 °C -0.8 °C 1026.3 hPa Calm   1.6 km/h 87% 0 mm 0 W/m2
00:19 0.6 °C -0.8 °C 1026.3 hPa Calm     87% 0 mm 0 W/m2
00:24 0.6 °C -0.8 °C 1026.3 hPa Calm   1.6 km/h 87% 0 mm 0 W/m2
00:29 0.4 °C -0.9 °C 1026.6 hPa Calm     87% 0 mm 0 W/m2
00:34 0.3 °C -1.1 °C 1026.6 hPa Calm     87% 0 mm 0 W/m2
00:39 0.2 °C -1.2 °C 1026.6 hPa Calm     87% 0 mm 0 W/m2
00:44 0.2 °C -1.2 °C 1026.6 hPa Calm     87% 0 mm 0 W/m2
00:49 0.1 °C -1.3 °C 1026.6 hPa Calm     87% 0 mm 0 W/m2
00:54 0 °C -1.4 °C 1026.6 hPa Calm     87% 0 mm 0 W/m2
00:59 -0.2 °C -1.6 °C 1026.6 hPa Calm     87% 0 mm 0 W/m2
01:04 -0.3 °C -1.7 °C 1026.6 hPa Calm     87% 0 mm 0 W/m2
01:09 -0.3 °C -1.6 °C 1026.6 hPa Calm     88% 0 mm 0 W/m2
01:14 -0.3 °C -1.6 °C 1026.6 hPa Calm     88% 0 mm 0 W/m2
01:19 -0.3 °C -1.6 °C 1026.6 hPa Calm     88% 0 mm 0 W/m2
01:24 -0.4 °C -1.7 °C 1026.6 hPa Calm     88% 0 mm 0 W/m2
01:29 -0.5 °C -1.7 °C 1026.6 hPa Calm     88% 0 mm 0 W/m2
01:34 -0.4 °C -1.7 °C 1026.6 hPa Calm     88% 0 mm 0 W/m2
01:39 -0.5 °C -1.7 °C 1026.6 hPa Calm     88% 0 mm 0 W/m2
01:44 -0.6 °C -1.7 °C 1026.6 hPa Calm     88% 0 mm 0 W/m2
01:49 -0.6 °C -1.8 °C 1026.6 hPa Calm     88% 0 mm 0 W/m2
01:54 -0.6 °C -1.8 °C 1026.6 hPa Calm     88% 0 mm 0 W/m2
01:59 -0.6 °C -1.8 °C 1026.6 hPa Calm     88% 0 mm 0 W/m2
02:04 -0.7 °C -1.8 °C 1026.6 hPa Calm     88% 0 mm 0 W/m2
02:09 -0.7 °C -1.9 °C 1026.6 hPa Calm     88% 0 mm 0 W/m2
02:14 -0.8 °C -1.9 °C 1026.6 hPa Calm     89% 0 mm 0 W/m2
02:19 -0.7 °C -1.8 °C 1026.6 hPa Calm     89% 0 mm 0 W/m2
02:23 -0.7 °C -1.8 °C 1026.6 hPa Calm     89% 0 mm 0 W/m2
02:29 -0.6 °C -1.7 °C 1026.6 hPa WNW 0.6 km/h 3.2 km/h 89% 0 mm 0 W/m2
02:39 -0.4 °C -1.5 °C 1026.6 hPa Calm     89% 0 mm 0 W/m2
02:44 -0.3 °C -1.4 °C 1026.6 hPa Calm     89% 0 mm 0 W/m2
02:49 -0.2 °C -1.3 °C 1026.6 hPa Calm     89% 0 mm 0 W/m2
02:54 -0.1 °C -1.2 °C 1026.6 hPa Calm     89% 0 mm 0 W/m2
02:59 0 °C -1.1 °C 1026.6 hPa Calm     89% 0 mm 0 W/m2
03:04 0.1 °C -1.1 °C 1026.6 hPa Calm     89% 0 mm 0 W/m2
03:09 0.2 °C -0.9 °C 1026.6 hPa Calm     89% 0 mm 0 W/m2
03:14 0.3 °C -0.8 °C 1026.3 hPa WNW 0.6 km/h 3.2 km/h 89% 0 mm 0 W/m2
03:19 0.4 °C -0.7 °C 1026.3 hPa WNW 1.9 km/h 4.8 km/h 89% 0 mm 0 W/m2
03:24 0.6 °C -0.6 °C 1026.6 hPa WNW 3.1 km/h 6.4 km/h 89% 0 mm 0 W/m2
03:29 0.7 °C -0.4 °C 1026.3 hPa WNW 1.6 km/h 4.8 km/h 89% 0 mm 0 W/m2
03:34 0.8 °C -0.3 °C 1026.3 hPa Calm     89% 0 mm 0 W/m2
03:39 0.8 °C -0.2 °C 1026.3 hPa Calm     89% 0 mm 0 W/m2
03:44 0.9 °C -0.2 °C 1026.3 hPa WNW 1 km/h 4.8 km/h 89% 0 mm 0 W/m2
03:49 1.1 °C 0 °C 1026 hPa WNW 0.6 km/h 4.8 km/h 89% 0 mm 0 W/m2
03:54 1.2 °C 0.2 °C 1026 hPa WNW 0.6 km/h 4.8 km/h 89% 0 mm 0 W/m2
03:59 1.4 °C 0.3 °C 1026 hPa Calm     89% 0 mm 0 W/m2
04:04 1.3 °C 0.2 °C 1026.3 hPa WNW 3.7 km/h 6.4 km/h 89% 0 mm 0 W/m2
04:09 1.3 °C 0.2 °C 1026.6 hPa WNW 1.3 km/h 6.4 km/h 89% 0 mm 0 W/m2
04:14 1.3 °C 0.2 °C 1026.3 hPa WNW 1.3 km/h 4.8 km/h 89% 0.25 mm 0 W/m2
04:19 1.3 °C 0.2 °C 1026.3 hPa WNW 0.3 km/h 3.2 km/h 89% 0.25 mm 0 W/m2
04:23 1.3 °C 0.2 °C 1026.3 hPa Calm   3.2 km/h 89% 0.25 mm 0 W/m2
04:29 1.4 °C 0.3 °C 1026 hPa Calm     89% 0.51 mm 0 W/m2
04:34 1.3 °C 0.3 °C 1026 hPa Calm     89% 0.51 mm 0 W/m2
04:39 1.3 °C 0.2 °C 1026 hPa Calm     89% 0.51 mm 0 W/m2
04:44 1.3 °C 0.2 °C 1026 hPa Calm     89% 0.51 mm 0 W/m2
04:49 1.3 °C 0.2 °C 1026 hPa Calm     89.4% 0.51 mm 0 W/m2
04:54 1.3 °C 0.3 °C 1026.3 hPa WNW 1.3 km/h 3.2 km/h 90% 0.51 mm 0 W/m2
04:59 1.3 °C 0.3 °C 1026 hPa WNW 1.1 km/h 3.2 km/h 90% 0.51 mm 0 W/m2
05:04 1.3 °C 0.3 °C 1026 hPa WNW 0.6 km/h 4.8 km/h 90% 0.51 mm 0 W/m2
05:09 1.4 °C 0.4 °C 1026 hPa Calm   4.8 km/h 90% 0.51 mm 0 W/m2
05:14 1.3 °C 0.3 °C 1026 hPa Calm     90% 0.51 mm 0 W/m2
05:19 1.4 °C 0.4 °C 1026 hPa Calm     90% 0.25 mm 0 W/m2
05:24 1.5 °C 0.5 °C 1026 hPa Calm     90% 0.25 mm 0 W/m2
05:29 1.6 °C 0.7 °C 1026 hPa Calm     90.6% 0.25 mm 0 W/m2
05:34 1.6 °C 0.7 °C 1026 hPa Calm     90.6% 0 mm 0 W/m2
05:39 1.7 °C 0.9 °C 1026 hPa Calm     91% 0 mm 0 W/m2
05:44 1.7 °C 0.9 °C 1026 hPa Calm     91% 0 mm 0 W/m2
05:49 1.8 °C 1 °C 1026 hPa WNW 0.6 km/h 3.2 km/h 91% 0 mm 0 W/m2
05:54 1.8 °C 1 °C 1026 hPa Calm   3.2 km/h 91% 0 mm 0 W/m2
05:59 1.8 °C 1.1 °C 1026 hPa WNW 0.6 km/h 3.2 km/h 91% 0.25 mm 0 W/m2
06:04 1.9 °C 1.1 °C 1026 hPa WNW 0.3 km/h 3.2 km/h 91% 0.25 mm 0 W/m2
06:09 1.9 °C 1.1 °C 1026 hPa WNW 0.3 km/h 3.2 km/h 91% 0.25 mm 0 W/m2
06:14 1.9 °C 1.1 °C 1026 hPa WNW 0.3 km/h 3.2 km/h 91% 0.25 mm 0 W/m2
06:19 1.9 °C 1.1 °C 1026 hPa WNW 1.3 km/h 4.8 km/h 91% 0.25 mm 0 W/m2
06:24 2 °C 1.2 °C 1026.3 hPa Calm     91% 0.25 mm 0 W/m2
06:29 2.1 °C 1.3 °C 1026 hPa Calm     91% 0.25 mm 5 W/m2
06:34 2.2 °C 1.3 °C 1026.3 hPa Calm   1.6 km/h 91% 0.25 mm 5 W/m2
06:39 2.2 °C 1.4 °C 1026.3 hPa WNW 0.3 km/h 1.6 km/h 91% 0.25 mm 5 W/m2
06:44 2.2 °C 1.4 °C 1026.3 hPa WNW 0.6 km/h 3.2 km/h 91% 0.25 mm 7 W/m2
06:49 2.3 °C 1.5 °C 1026.3 hPa Calm   1.6 km/h 91% 0.25 mm 7 W/m2
06:54 2.4 °C 1.6 °C 1026.3 hPa WNW 0.6 km/h 3.2 km/h 91% 0.25 mm 9 W/m2
06:59 2.4 °C 1.7 °C 1026.3 hPa WNW 1.1 km/h 3.2 km/h 91% 0.25 mm 12 W/m2
07:04 2.6 °C 1.8 °C 1026.3 hPa WNW 2.3 km/h 6.4 km/h 91% 0 mm 18 W/m2
07:09 2.7 °C 1.8 °C 1026.6 hPa WNW 2.4 km/h 6.4 km/h 91% 0 mm 19 W/m2
07:14 2.8 °C 1.9 °C 1026.6 hPa WNW 2.1 km/h 4.8 km/h 91% 0 mm 25 W/m2
07:19 2.9 °C 2.1 °C 1026.6 hPa WNW 2.6 km/h 4.8 km/h 91% 0 mm 28 W/m2
07:24 3 °C 2.2 °C 1026.6 hPa WNW 0.6 km/h 3.2 km/h 91% 0 mm 30 W/m2
07:29 3.2 °C 2.3 °C 1026.6 hPa WNW 1 km/h 3.2 km/h 91% 0 mm 44 W/m2
07:34 3.2 °C 2.3 °C 1026.6 hPa WNW 2.7 km/h 4.8 km/h 90.6% 0 mm 58 W/m2
07:39 3.4 °C 2.5 °C 1026.6 hPa WNW 4 km/h 8 km/h 90.4% 0 mm 69 W/m2
07:44 3.7 °C 2.7 °C 1026.6 hPa WNW 3.5 km/h 6.4 km/h 90% 0 mm 81 W/m2
07:49 3.8 °C 2.8 °C 1026.6 hPa WNW 5.3 km/h 8 km/h 90% 0 mm 79 W/m2
07:54 3.9 °C 2.9 °C 1026.6 hPa WNW 4.3 km/h 8 km/h 89.8% 0 mm 65 W/m2
07:59 4.1 °C 2.8 °C 1026.6 hPa WNW 3.5 km/h 8 km/h 89% 0 mm 86 W/m2
08:03 4.1 °C 2.9 °C 1027 hPa WNW 3.2 km/h 6.4 km/h 89% 0 mm 121 W/m2
08:09 4.2 °C 3 °C 1027 hPa WNW 2.6 km/h 8 km/h 89% 0 mm 141 W/m2
08:14 4.4 °C 3.2 °C 1027 hPa WNW 2.4 km/h 8 km/h 88.8% 0 mm 195 W/m2
08:19 4.7 °C 3.4 °C 1027 hPa WNW 5.8 km/h 9.7 km/h 88% 0 mm 223 W/m2
08:24 5 °C 3.7 °C 1027 hPa West 8.4 km/h 12.9 km/h 88% 0 mm 236 W/m2
08:29 5.2 °C 3.7 °C 1027 hPa WNW 6.1 km/h 12.9 km/h 87% 0 mm 134 W/m2
08:34 5.2 °C 3.7 °C 1027 hPa WNW 5.8 km/h 11.3 km/h 87% 0 mm 98 W/m2
08:39 5.1 °C 3.6 °C 1027 hPa WNW 7.4 km/h 14.5 km/h 87% 0 mm 100 W/m2
08:44 5.1 °C 3.5 °C 1027.3 hPa WNW 8.4 km/h 12.9 km/h 86.6% 0 mm 70 W/m2
08:49 5.1 °C 3.4 °C 1027.3 hPa WNW 6.6 km/h 11.3 km/h 86% 0 mm 67 W/m2
08:53 5.2 °C 3.4 °C 1027.3 hPa WNW 4.3 km/h 9.7 km/h 86% 0 mm 76 W/m2
08:59 5.2 °C 3.5 °C 1027.3 hPa WNW 5.1 km/h 9.7 km/h 86% 0 mm 88 W/m2
09:04 5.3 °C 3.6 °C 1027.3 hPa NW 6.8 km/h 14.5 km/h 86% 0 mm 111 W/m2
09:09 5.2 °C 3.6 °C 1027.3 hPa NW 5.6 km/h 14.5 km/h 86% 0 mm 155 W/m2
09:14 5.3 °C 3.5 °C 1027.3 hPa NW 7.1 km/h 11.3 km/h 85% 0 mm 302 W/m2
09:19 5.5 °C 3.6 °C 1027.3 hPa NW 1.6 km/h 9.7 km/h 84.4% 0 mm 287 W/m2
09:24 5.8 °C 3.8 °C 1027.3 hPa WNW 5.1 km/h 12.9 km/h 84% 0 mm 236 W/m2
09:29 5.8 °C 3.6 °C 1027.3 hPa WNW 6.8 km/h 16.1 km/h 83% 0 mm 568 W/m2
09:34 5.9 °C 3.5 °C 1027.3 hPa NNW 7.7 km/h 16.1 km/h 81.6% 0 mm 527 W/m2
09:39 6 °C 3.4 °C 1027.7 hPa NW 9.2 km/h 19.3 km/h 80.6% 0 mm 232 W/m2
09:44 6 °C 3.3 °C 1027.7 hPa NW 7.9 km/h 16.1 km/h 80.2% 0 mm 218 W/m2
09:49 6.2 °C 3.4 °C 1027.7 hPa North 7.6 km/h 11.3 km/h 80% 0 mm 650 W/m2
09:54 6.1 °C 3.3 °C 1027.7 hPa NNW 9.3 km/h 19.3 km/h 79.4% 0 mm 213 W/m2
09:59 5.9 °C 3.2 °C 1028 hPa NW 10 km/h 17.7 km/h 79.8% 0 mm 281 W/m2
10:04 5.8 °C 3.1 °C 1028 hPa NNW 7.7 km/h 19.3 km/h 80.2% 0 mm 281 W/m2
10:09 5.8 °C 3.2 °C 1028 hPa NNW 10.9 km/h 17.7 km/h 80.2% 0 mm 457 W/m2
10:14 5.8 °C 3.2 °C 1028.3 hPa NNW 12.4 km/h 16.1 km/h 80% 0 mm 260 W/m2
10:18 5.7 °C 2.9 °C 1028.3 hPa NW 11.6 km/h 19.3 km/h 79.8% 0 mm 262 W/m2
10:24 5.7 °C 2.7 °C 1028.3 hPa NNW 10.5 km/h 19.3 km/h 79% 0 mm 318 W/m2
10:29 5.7 °C 2.8 °C 1028.3 hPa NNW 7.4 km/h 17.7 km/h 79% 0 mm 357 W/m2
10:34 5.8 °C 2.9 °C 1028.3 hPa North 9.2 km/h 20.9 km/h 79% 0 mm 341 W/m2
10:39 5.9 °C 3.2 °C 1028.3 hPa NNE 9 km/h 16.1 km/h 80% 0 mm 332 W/m2
10:44 5.8 °C 3.1 °C 1028.3 hPa NNE 7.7 km/h 14.5 km/h 80% 0 mm 288 W/m2
10:49 5.7 °C 3.2 °C 1028.7 hPa North 6.4 km/h 12.9 km/h 80.6% 0 mm 288 W/m2
10:54 5.9 °C 3.4 °C 1028.7 hPa North 6.6 km/h 12.9 km/h 81% 0 mm 360 W/m2
10:59 6 °C 3.4 °C 1028.7 hPa NNE 6.6 km/h 14.5 km/h 80.6% 0 mm 339 W/m2
11:04 6.1 °C 3.3 °C 1028.7 hPa NW 7.9 km/h 12.9 km/h 79.6% 0 mm 670 W/m2
11:09 6.6 °C 3.8 °C 1028.7 hPa NNE 5 km/h 17.7 km/h 79.4% 0 mm 629 W/m2
11:14 6.6 °C 3.6 °C 1029 hPa NNE 10.6 km/h 20.9 km/h 78% 0 mm 531 W/m2
11:19 6.2 °C 3.2 °C 1028.7 hPa North 6.4 km/h 17.7 km/h 78.4% 0 mm 397 W/m2
11:23 6.4 °C 3.4 °C 1028.7 hPa North 6.9 km/h 12.9 km/h 78.5% 0 mm 376 W/m2
11:29 6.7 °C 3.4 °C 1029 hPa North 8.9 km/h 16.1 km/h 77.3% 0 mm 290 W/m2
11:34 6.7 °C 3.3 °C 1029 hPa NE 8 km/h 16.1 km/h 76% 0 mm 425 W/m2
11:39 6.4 °C 3 °C 1029 hPa North 10.6 km/h 17.7 km/h 75.8% 0 mm 369 W/m2
11:44 6.7 °C 3.3 °C 1029 hPa NNW 9.7 km/h 17.7 km/h 76.2% 0 mm 807 W/m2
11:49 7 °C 3.4 °C 1029 hPa NNE 8 km/h 17.7 km/h 75.6% 0 mm 846 W/m2
11:54 7.7 °C 3.9 °C 1029 hPa North 5.5 km/h 12.9 km/h 74.6% 0 mm 763 W/m2
11:59 7.6 °C 3.7 °C 1029 hPa NNW 9.7 km/h 19.3 km/h 73.4% 0 mm 779 W/m2
12:04 7.4 °C 3.5 °C 1029 hPa North 11.6 km/h 24.1 km/h 73.6% 0 mm 867 W/m2
12:09 7.3 °C 3.1 °C 1029 hPa NNE 12.9 km/h 20.9 km/h 72.2% 0 mm 867 W/m2
12:14 7.4 °C 3.2 °C 1029 hPa North 7.1 km/h 17.7 km/h 72% 0 mm 1051 W/m2
12:19 7.4 °C 3.1 °C 1029 hPa North 8.9 km/h 19.3 km/h 71% 0 mm 1051 W/m2
12:24 7.7 °C 3.1 °C 1029 hPa NNE 9.3 km/h 19.3 km/h 70.2% 0 mm 837 W/m2
12:29 7.9 °C 3.2 °C 1029.3 hPa NNE 8 km/h 19.3 km/h 70% 0 mm 837 W/m2
12:34 7.8 °C 3 °C 1029.3 hPa North 7.4 km/h 16.1 km/h 69.4% 0 mm 302 W/m2
12:39 7.3 °C 2.4 °C 1029.3 hPa NNE 10.5 km/h 16.1 km/h 68.8% 0 mm 257 W/m2
12:44 7.1 °C 2.2 °C 1029.3 hPa North 8.7 km/h 14.5 km/h 68.8% 0 mm 250 W/m2
12:49 7.2 °C 2.6 °C 1029.3 hPa NNW 4.7 km/h 16.1 km/h 70% 0 mm 285 W/m2
12:54 7.2 °C 2.7 °C 1029.3 hPa North 5.1 km/h 9.7 km/h 70% 0 mm 366 W/m2
12:59 7.5 °C 2.9 °C 1029.3 hPa North 5.1 km/h 8 km/h 70% 0 mm 503 W/m2
13:04 7.9 °C 2.8 °C 1029.3 hPa NW 8.4 km/h 16.1 km/h 68% 0 mm 480 W/m2
13:09 7.8 °C 2.3 °C 1029.3 hPa NW 8.2 km/h 16.1 km/h 66.2% 0 mm 315 W/m2
13:14 7.7 °C 2.3 °C 1029.3 hPa NW 4.7 km/h 12.9 km/h 66.8% 0 mm 494 W/m2
13:19 7.8 °C 2.6 °C 1029.3 hPa NNW 7.7 km/h 12.9 km/h 67.2% 0 mm 445 W/m2
13:24 7.8 °C 2.5 °C 1029.3 hPa NNW 6 km/h 12.9 km/h 67% 0 mm 404 W/m2
13:29 8.1 °C 2.7 °C 1029.3 hPa NNW 4.3 km/h 11.3 km/h 67% 0 mm 374 W/m2
13:34 8.1 °C 2.3 °C 1029.7 hPa North 5.8 km/h 16.1 km/h 64.8% 0 mm 367 W/m2
13:39 7.9 °C 2.1 °C 1029.7 hPa NNW 8.2 km/h 16.1 km/h 64.4% 0 mm 374 W/m2
13:43 7.8 °C 2.4 °C 1029.7 hPa NNW 4.8 km/h 14.5 km/h 66.3% 0 mm 422 W/m2
13:49 8.2 °C 2.7 °C 1029.7 hPa NNW 8.7 km/h 12.9 km/h 65.8% 0 mm 559 W/m2
13:54 8.4 °C 2.9 °C 1029.3 hPa North 5.8 km/h 12.9 km/h 66.2% 0 mm 548 W/m2
13:59 8.7 °C 3 °C 1029.7 hPa NNE 5.1 km/h 12.9 km/h 65% 0 mm 763 W/m2
14:04 8.9 °C 3 °C 1029.7 hPa NNW 4.7 km/h 11.3 km/h 64.4% 0 mm 483 W/m2
14:09 9.3 °C 3 °C 1029.7 hPa NNE 6.8 km/h 16.1 km/h 62.4% 0 mm 396 W/m2
14:14 9.1 °C 2.3 °C 1029.7 hPa NNE 6.1 km/h 12.9 km/h 60.6% 0 mm 388 W/m2
14:19 9 °C 2.1 °C 1029.7 hPa NNE 2.7 km/h 9.7 km/h 60% 0 mm 418 W/m2
14:24 8.8 °C 2 °C 1029.7 hPa North 3.5 km/h 8 km/h 60.2% 0 mm 401 W/m2
14:29 8.9 °C 2.4 °C 1029.7 hPa NNE 7.2 km/h 12.9 km/h 61.4% 0 mm 374 W/m2
14:34 9.1 °C 2.2 °C 1029.7 hPa North 5.8 km/h 12.9 km/h 59.8% 0 mm 457 W/m2
14:39 9.1 °C 2.2 °C 1029.7 hPa NNW 10.6 km/h 16.1 km/h 59.6% 0 mm 635 W/m2
14:44 8.9 °C 1.9 °C 1029.7 hPa North 10 km/h 16.1 km/h 59.6% 0 mm 668 W/m2
14:49 8.8 °C 1.8 °C 1029.7 hPa NNE 9 km/h 17.7 km/h 59.2% 0 mm 1074 W/m2
14:54 9.1 °C 2.1 °C 1029.7 hPa North 6.4 km/h 12.9 km/h 59.2% 0 mm 612 W/m2
14:59 9.3 °C 2.3 °C 1029.7 hPa NNW 10.3 km/h 16.1 km/h 59.2% 0 mm 612 W/m2
15:04 9.3 °C 2.3 °C 1029.7 hPa NW 6.4 km/h 16.1 km/h 59.8% 0 mm 612 W/m2
15:09 9.2 °C 2.3 °C 1029.3 hPa NW 7.1 km/h 17.7 km/h 60.2% 0 mm 503 W/m2
15:14 9.1 °C 2.4 °C 1029.3 hPa NW 10.3 km/h 14.5 km/h 61% 0 mm 1032 W/m2
15:19 8.9 °C 2.1 °C 1029.3 hPa North 0.6 km/h 16.1 km/h 60.2% 0 mm 548 W/m2
15:24 9.1 °C 2.4 °C 1029.3 hPa NNE 4 km/h 16.1 km/h 60.8% 0 mm 1000 W/m2
15:29 10 °C 2.9 °C 1029.3 hPa NE 5.3 km/h 14.5 km/h 59.4% 0 mm 1000 W/m2
15:34 10.1 °C 2.9 °C 1029.3 hPa NNE 6.1 km/h 14.5 km/h 59.2% 0 mm 397 W/m2
15:39 9.4 °C 2.9 °C 1029.3 hPa North 3.5 km/h 11.3 km/h 61.4% 0 mm 327 W/m2
15:44 9.4 °C 3 °C 1029.3 hPa North 1.9 km/h 12.9 km/h 62% 0 mm 336 W/m2
15:49 9.6 °C 2.8 °C 1029.3 hPa NNE 6.3 km/h 14.5 km/h 60.8% 0 mm 366 W/m2
15:54 9.3 °C 2.3 °C 1029.3 hPa NNE 1 km/h 9.7 km/h 60% 0 mm 522 W/m2
15:59 9.2 °C 2.4 °C 1029.3 hPa NNE 5.3 km/h 11.3 km/h 60.6% 0 mm 392 W/m2
16:04 9.1 °C 2.3 °C 1029.3 hPa North 1 km/h 8 km/h 60.4% 0 mm 297 W/m2
16:09 9.1 °C 2.4 °C 1029.3 hPa North 0.5 km/h 4.8 km/h 61% 0 mm 304 W/m2
16:14 9.3 °C 2.7 °C 1029.3 hPa NNE 5.1 km/h 16.1 km/h 61.2% 0 mm 343 W/m2
16:19 9.3 °C 2.3 °C 1029.3 hPa NNW 5.5 km/h 16.1 km/h 59.4% 0 mm 452 W/m2
16:24 9.4 °C 2.7 °C 1029.3 hPa NW 9 km/h 16.1 km/h 60.8% 0 mm 452 W/m2
16:29 9.4 °C 2.5 °C 1029.3 hPa NNE 7.2 km/h 16.1 km/h 60% 0 mm 359 W/m2
16:34 9.4 °C 2.4 °C 1029.3 hPa NNE 9 km/h 17.7 km/h 59.6% 0 mm 408 W/m2
16:39 9.3 °C 2.3 °C 1029.3 hPa NNE 5.8 km/h 17.7 km/h 59.4% 0 mm 714 W/m2
16:44 9.8 °C 2.6 °C 1029.3 hPa NNE 4.3 km/h 9.7 km/h 58.8% 0 mm 531 W/m2
16:49 9.9 °C 2.5 °C 1029.3 hPa WNW 5.8 km/h 12.9 km/h 58% 0 mm 543 W/m2
16:54 9.7 °C 2.3 °C 1029.3 hPa WNW 4 km/h 12.9 km/h 57.6% 0 mm 617 W/m2
16:59 9.9 °C 2.6 °C 1029.3 hPa NNE 7.1 km/h 12.9 km/h 58.6% 0 mm 302 W/m2
17:04 10.1 °C 2.7 °C 1029.3 hPa NNE 6 km/h 12.9 km/h 57.8% 0 mm 557 W/m2
17:09 10.2 °C 2.7 °C 1029.7 hPa NE 5.8 km/h 12.9 km/h 57.4% 0 mm 517 W/m2
17:14 10.2 °C 2.6 °C 1029.7 hPa NE 7.1 km/h 16.1 km/h 57% 0 mm 371 W/m2
17:19 10.2 °C 2.2 °C 1029.7 hPa NE 8.4 km/h 16.1 km/h 55.8% 0 mm 373 W/m2
17:24 10.1 °C 2 °C 1029.7 hPa North 9 km/h 12.9 km/h 55.4% 0 mm 288 W/m2
17:29 9.8 °C 1.6 °C 1029.7 hPa NNE 6.3 km/h 11.3 km/h 54.8% 0 mm 434 W/m2
17:34 10.1 °C 1.7 °C 1029.7 hPa NNE 6.3 km/h 11.3 km/h 54% 0 mm 411 W/m2
17:39 10.2 °C 1.6 °C 1029.7 hPa North 6 km/h 12.9 km/h 53.5% 0 mm 399 W/m2
17:44 9.9 °C 1.4 °C 1029.7 hPa NNW 7.7 km/h 14.5 km/h 53.4% 0 mm 376 W/m2
17:49 9.7 °C 1.3 °C 1029.7 hPa North 5.3 km/h 11.3 km/h 54.2% 0 mm 248 W/m2
17:54 9.6 °C 1.5 °C 1029.7 hPa North 6.4 km/h 11.3 km/h 55% 0 mm 248 W/m2
17:59 9.7 °C 1.6 °C 1029.7 hPa NNE 4.7 km/h 9.7 km/h 55% 0 mm 346 W/m2
18:04 9.8 °C 1.6 °C 1029.7 hPa NNE 1.8 km/h 8 km/h 54.6% 0 mm 301 W/m2
18:09 10.1 °C 1.7 °C 1029.7 hPa NNE 1.6 km/h 4.8 km/h 54.2% 0 mm 181 W/m2
18:14 10.3 °C 1.8 °C 1029.7 hPa NNE 3.9 km/h 9.7 km/h 53.6% 0 mm 264 W/m2
18:19 10.5 °C 1.8 °C 1029.7 hPa NNE 4.5 km/h 9.7 km/h 53% 0 mm 260 W/m2
18:24 10.3 °C 1.9 °C 1029.7 hPa NE 7.6 km/h 14.5 km/h 54% 0 mm 253 W/m2
18:29 10 °C 1.7 °C 1029.7 hPa NE 4.7 km/h 9.7 km/h 54.2% 0 mm 93 W/m2
18:34 9.8 °C 1.8 °C 1030 hPa NE 2.1 km/h 8 km/h 55.4% 0 mm 213 W/m2
18:39 9.9 °C 1.9 °C 1030 hPa NE 4.5 km/h 6.4 km/h 55.4% 0 mm 214 W/m2
18:44 10 °C 1.7 °C 1030 hPa NE 6.4 km/h 9.7 km/h 54.2% 0 mm 100 W/m2
18:48 9.7 °C 1.5 °C 1030 hPa NE 3.2 km/h 8 km/h 54.8% 0 mm 104 W/m2
18:54 9.6 °C 1.6 °C 1030 hPa NE 2.6 km/h 4.8 km/h 55.8% 0 mm 67 W/m2
18:59 9.4 °C 1.5 °C 1030 hPa NE 3.2 km/h 4.8 km/h 56% 0 mm 62 W/m2
19:03 9.2 °C 1.5 °C 1030 hPa NE 2.4 km/h 4.8 km/h 56.8% 0 mm 47 W/m2
19:09 9.1 °C 1.5 °C 1030 hPa NE 2.4 km/h 6.4 km/h 57.4% 0 mm 46 W/m2
19:14 8.9 °C 1.4 °C 1030 hPa NE 3.2 km/h 6.4 km/h 57.4% 0 mm 70 W/m2
19:19 8.9 °C 1.4 °C 1030 hPa NE 1.3 km/h 3.2 km/h 57.4% 0 mm 54 W/m2
19:24 9.1 °C 1.7 °C 1030 hPa NE 3.4 km/h 6.4 km/h 58% 0 mm 53 W/m2
19:29 9.2 °C 1.8 °C 1030 hPa NE 2.1 km/h 6.4 km/h 58% 0 mm 42 W/m2
19:34 9.3 °C 1.9 °C 1030 hPa NE 2.7 km/h 6.4 km/h 58% 0 mm 33 W/m2
19:39 9.3 °C 1.7 °C 1030 hPa NE 1.9 km/h 6.4 km/h 57% 0 mm 25 W/m2
19:44 9.2 °C 1.7 °C 1030 hPa NE 2.1 km/h 4.8 km/h 58% 0 mm 19 W/m2
19:49 9 °C 1.7 °C 1030 hPa NE 0.3 km/h 3.2 km/h 58.4% 0 mm 14 W/m2
19:54 8.8 °C 1.7 °C 1030 hPa NE 1.3 km/h 3.2 km/h 59% 0 mm 11 W/m2
19:59 8.7 °C 1.8 °C 1030.4 hPa Calm   1.6 km/h 60% 0 mm 7 W/m2
20:04 8.6 °C 1.9 °C 1030.4 hPa Calm     60.8% 0 mm 5 W/m2
20:08 8.5 °C 2.1 °C 1030.4 hPa Calm     62% 0 mm 0 W/m2
20:14 8.4 °C 2.1 °C 1030.4 hPa NE 1.9 km/h 6.4 km/h 62.4% 0 mm 0 W/m2
20:19 8.2 °C 2.3 °C 1030.4 hPa NE 3.5 km/h 6.4 km/h 64.4% 0 mm 0 W/m2
20:24 8.1 °C 2.9 °C 1030.7 hPa NE 3.4 km/h 6.4 km/h 67.8% 0 mm 0 W/m2
20:29 7.8 °C 3.2 °C 1030.7 hPa North 4.8 km/h 11.3 km/h 70% 0 mm 0 W/m2
20:34 7.6 °C 3.4 °C 1030.7 hPa NW 6 km/h 11.3 km/h 71.8% 0 mm 0 W/m2
20:39 7.3 °C 3.3 °C 1030.7 hPa NW 4.2 km/h 11.3 km/h 73.2% 0 mm 0 W/m2
20:44 7.2 °C 3.4 °C 1030.7 hPa NW 6 km/h 9.7 km/h 74.2% 0 mm 0 W/m2
20:49 7.1 °C 3.4 °C 1031 hPa NW 2.7 km/h 6.4 km/h 75% 0 mm 0 W/m2
20:54 6.9 °C 3.4 °C 1031 hPa NW 3.7 km/h 6.4 km/h 75.4% 0 mm 0 W/m2
20:59 6.8 °C 3.3 °C 1031 hPa NW 3.2 km/h 4.8 km/h 76% 0 mm 0 W/m2
21:04 6.8 °C 3.3 °C 1031 hPa NW 2.9 km/h 4.8 km/h 76% 0 mm 0 W/m2
21:09 6.6 °C 3.3 °C 1031 hPa NW 2.1 km/h 4.8 km/h 76.8% 0 mm 0 W/m2
21:14 6.4 °C 3.2 °C 1031 hPa NW 0.6 km/h 4.8 km/h 77% 0 mm 0 W/m2
21:19 6.3 °C 3.1 °C 1031 hPa NW 0.8 km/h 4.8 km/h 77% 0 mm 0 W/m2
21:24 6.2 °C 3.2 °C 1031 hPa Calm   3.2 km/h 78% 0 mm 0 W/m2
21:29 6.2 °C 3.1 °C 1031 hPa Calm     78% 0 mm 0 W/m2
21:34 6.1 °C 3 °C 1031 hPa NW 0.3 km/h 1.6 km/h 78% 0 mm 0 W/m2
21:39 5.9 °C 2.8 °C 1031 hPa Calm   1.6 km/h 78% 0 mm 0 W/m2
21:44 5.8 °C 2.8 °C 1031.4 hPa Calm     78.4% 0 mm 0 W/m2
21:49 5.7 °C 2.8 °C 1031.4 hPa NW 0.3 km/h 3.2 km/h 79% 0 mm 0 W/m2
21:54 5.6 °C 2.7 °C 1031.4 hPa NW 1 km/h 3.2 km/h 79% 0 mm 0 W/m2
21:59 5.4 °C 2.6 °C 1031.4 hPa Calm   3.2 km/h 79.2% 0 mm 0 W/m2
22:04 5.3 °C 2.6 °C 1031.4 hPa Calm     80% 0 mm 0 W/m2
22:09 5.3 °C 2.6 °C 1031.4 hPa Calm     80% 0 mm 0 W/m2
22:14 5.3 °C 2.6 °C 1031.4 hPa Calm     80% 0 mm 0 W/m2
22:19 5.1 °C 2.4 °C 1031.4 hPa Calm     80% 0 mm 0 W/m2
22:24 4.8 °C 2.1 °C 1031.4 hPa Calm   1.6 km/h 80% 0 mm 0 W/m2
22:29 4.5 °C 1.9 °C 1031.4 hPa Calm     80.4% 0 mm 0 W/m2
22:34 4.3 °C 1.8 °C 1031.4 hPa Calm     81% 0 mm 0 W/m2
22:39 4.2 °C 1.8 °C 1031.4 hPa Calm     81.6% 0 mm 0 W/m2
22:44 4.1 °C 1.8 °C 1031.4 hPa NW 0.8 km/h 3.2 km/h 82% 0 mm 0 W/m2
22:49 4 °C 1.8 °C 1031.4 hPa Calm   3.2 km/h 82.4% 0 mm 0 W/m2
22:54 3.8 °C 1.7 °C 1031.7 hPa Calm     83% 0 mm 0 W/m2
22:59 3.7 °C 1.6 °C 1031.7 hPa Calm     83% 0 mm 0 W/m2
23:04 3.7 °C 1.7 °C 1031.7 hPa Calm     83.4% 0 mm 0 W/m2
23:09 3.7 °C 1.7 °C 1031.7 hPa Calm     84% 0 mm 0 W/m2
23:14 3.6 °C 1.6 °C 1031.7 hPa Calm     84% 0 mm 0 W/m2
23:19 3.6 °C 1.6 °C 1031.7 hPa Calm     84% 0 mm 0 W/m2
23:24 3.6 °C 1.6 °C 1031.7 hPa Calm     84% 0 mm 0 W/m2
23:29 3.3 °C 1.3 °C 1031.7 hPa Calm     84% 0 mm 0 W/m2
23:34 3.2 °C 1.4 °C 1031.7 hPa Calm     85% 0 mm 0 W/m2
23:39 3.2 °C 1.4 °C 1031.7 hPa Calm     85% 0 mm 0 W/m2
23:44 3.1 °C 1.3 °C 1031.7 hPa Calm     85% 0 mm 0 W/m2
23:49 2.9 °C 1.1 °C 1031.7 hPa Calm     85% 0 mm 0 W/m2
23:54 2.9 °C 1.2 °C 1031.7 hPa Calm     85.2% 0 mm 0 W/m2
23:59 2.9 °C 1.3 °C 1031.7 hPa Calm     86% 0 mm 0 W/m2
Bath Spa Weather
Compliments of Weather Underground - 2 mb